sensor_id;sensor_type;location;lat;lon;timestamp;P1;durP1;ratioP1;P2;durP2;ratioP2
17340;SDS011;8788;49.930;8.660;2023-04-29T00:01:38;1.48;;;1.23;;
17340;SDS011;8788;49.930;8.660;2023-04-29T00:04:05;2.10;;;1.58;;
17340;SDS011;8788;49.930;8.660;2023-04-29T00:06:33;4.70;;;1.50;;
17340;SDS011;8788;49.930;8.660;2023-04-29T00:09:00;1.83;;;1.73;;
17340;SDS011;8788;49.930;8.660;2023-04-29T00:11:28;1.60;;;1.50;;
17340;SDS011;8788;49.930;8.660;2023-04-29T00:13:55;1.67;;;1.58;;
17340;SDS011;8788;49.930;8.660;2023-04-29T00:16:24;2.75;;;1.70;;
17340;SDS011;8788;49.930;8.660;2023-04-29T00:18:51;2.25;;;1.73;;
17340;SDS011;8788;49.930;8.660;2023-04-29T00:21:18;4.38;;;1.83;;
17340;SDS011;8788;49.930;8.660;2023-04-29T00:23:45;4.13;;;1.92;;
17340;SDS011;8788;49.930;8.660;2023-04-29T00:26:12;1.80;;;1.70;;
17340;SDS011;8788;49.930;8.660;2023-04-29T00:28:44;5.60;;;1.90;;
17340;SDS011;8788;49.930;8.660;2023-04-29T00:31:11;3.38;;;1.67;;
17340;SDS011;8788;49.930;8.660;2023-04-29T00:33:39;3.58;;;1.90;;
17340;SDS011;8788;49.930;8.660;2023-04-29T00:36:07;5.70;;;2.10;;
17340;SDS011;8788;49.930;8.660;2023-04-29T00:38:34;2.10;;;1.88;;
17340;SDS011;8788;49.930;8.660;2023-04-29T00:41:02;4.55;;;1.80;;
17340;SDS011;8788;49.930;8.660;2023-04-29T00:43:29;3.25;;;1.50;;
17340;SDS011;8788;49.930;8.660;2023-04-29T00:45:56;5.00;;;1.85;;
17340;SDS011;8788;49.930;8.660;2023-04-29T00:48:24;2.05;;;1.77;;
17340;SDS011;8788;49.930;8.660;2023-04-29T00:50:53;5.03;;;1.45;;
17340;SDS011;8788;49.930;8.660;2023-04-29T00:53:20;3.90;;;1.50;;
17340;SDS011;8788;49.930;8.660;2023-04-29T00:55:48;3.75;;;1.60;;
17340;SDS011;8788;49.930;8.660;2023-04-29T00:58:17;1.45;;;1.35;;
17340;SDS011;8788;49.930;8.660;2023-04-29T01:00:44;1.98;;;1.88;;
17340;SDS011;8788;49.930;8.660;2023-04-29T01:03:13;1.73;;;1.63;;
17340;SDS011;8788;49.930;8.660;2023-04-29T01:05:41;3.60;;;1.38;;
17340;SDS011;8788;49.930;8.660;2023-04-29T01:08:15;1.98;;;1.58;;
17340;SDS011;8788;49.930;8.660;2023-04-29T01:10:58;1.48;;;1.38;;
17340;SDS011;8788;49.930;8.660;2023-04-29T01:13:29;1.58;;;1.30;;
17340;SDS011;8788;49.930;8.660;2023-04-29T01:16:06;4.00;;;1.55;;
17340;SDS011;8788;49.930;8.660;2023-04-29T01:18:38;1.85;;;1.63;;
17340;SDS011;8788;49.930;8.660;2023-04-29T01:21:10;1.60;;;1.35;;
17340;SDS011;8788;49.930;8.660;2023-04-29T01:23:39;1.60;;;1.40;;
17340;SDS011;8788;49.930;8.660;2023-04-29T01:26:06;1.58;;;1.48;;
17340;SDS011;8788;49.930;8.660;2023-04-29T01:29:16;1.65;;;1.55;;
17340;SDS011;8788;49.930;8.660;2023-04-29T01:31:57;2.13;;;1.45;;
17340;SDS011;8788;49.930;8.660;2023-04-29T01:34:33;4.22;;;1.60;;
17340;SDS011;8788;49.930;8.660;2023-04-29T01:37:09;2.30;;;1.67;;
17340;SDS011;8788;49.930;8.660;2023-04-29T01:39:51;2.00;;;1.77;;
17340;SDS011;8788;49.930;8.660;2023-04-29T01:42:27;1.70;;;1.60;;
17340;SDS011;8788;49.930;8.660;2023-04-29T01:45:09;2.88;;;1.77;;
17340;SDS011;8788;49.930;8.660;2023-04-29T01:47:38;2.10;;;1.95;;
17340;SDS011;8788;49.930;8.660;2023-04-29T01:50:06;4.70;;;1.98;;
17340;SDS011;8788;49.930;8.660;2023-04-29T01:52:34;2.38;;;1.80;;
17340;SDS011;8788;49.930;8.660;2023-04-29T01:58:07;2.05;;;1.90;;
17340;SDS011;8788;49.930;8.660;2023-04-29T02:00:47;3.83;;;2.50;;
17340;SDS011;8788;49.930;8.660;2023-04-29T02:03:15;2.83;;;2.13;;
17340;SDS011;8788;49.930;8.660;2023-04-29T02:05:46;4.53;;;1.92;;
17340;SDS011;8788;49.930;8.660;2023-04-29T02:08:15;2.60;;;2.40;;
17340;SDS011;8788;49.930;8.660;2023-04-29T02:10:51;3.50;;;2.63;;
17340;SDS011;8788;49.930;8.660;2023-04-29T02:13:34;2.65;;;2.30;;
17340;SDS011;8788;49.930;8.660;2023-04-29T02:16:08;4.60;;;2.90;;
17340;SDS011;8788;49.930;8.660;2023-04-29T02:18:39;5.32;;;2.42;;
17340;SDS011;8788;49.930;8.660;2023-04-29T02:21:06;2.33;;;2.10;;
17340;SDS011;8788;49.930;8.660;2023-04-29T02:23:34;3.28;;;2.97;;
17340;SDS011;8788;49.930;8.660;2023-04-29T02:26:03;3.05;;;2.28;;
17340;SDS011;8788;49.930;8.660;2023-04-29T02:28:31;3.38;;;2.50;;
17340;SDS011;8788;49.930;8.660;2023-04-29T02:30:58;3.80;;;2.53;;
17340;SDS011;8788;49.930;8.660;2023-04-29T02:33:26;2.17;;;2.03;;
17340;SDS011;8788;49.930;8.660;2023-04-29T02:35:53;3.08;;;1.52;;
17340;SDS011;8788;49.930;8.660;2023-04-29T02:38:21;1.63;;;1.50;;
17340;SDS011;8788;49.930;8.660;2023-04-29T02:40:48;2.10;;;1.90;;
17340;SDS011;8788;49.930;8.660;2023-04-29T02:43:17;1.83;;;1.73;;
17340;SDS011;8788;49.930;8.660;2023-04-29T02:45:44;2.33;;;1.50;;
17340;SDS011;8788;49.930;8.660;2023-04-29T02:48:11;2.10;;;1.95;;
17340;SDS011;8788;49.930;8.660;2023-04-29T02:50:39;4.60;;;2.35;;
17340;SDS011;8788;49.930;8.660;2023-04-29T02:53:06;2.67;;;2.28;;
17340;SDS011;8788;49.930;8.660;2023-04-29T02:55:33;2.95;;;2.50;;
17340;SDS011;8788;49.930;8.660;2023-04-29T02:58:06;2.28;;;2.08;;
17340;SDS011;8788;49.930;8.660;2023-04-29T03:00:34;3.33;;;2.25;;
17340;SDS011;8788;49.930;8.660;2023-04-29T03:03:01;2.42;;;2.22;;
17340;SDS011;8788;49.930;8.660;2023-04-29T03:05:29;4.70;;;2.58;;
17340;SDS011;8788;49.930;8.660;2023-04-29T03:07:56;3.28;;;2.97;;
17340;SDS011;8788;49.930;8.660;2023-04-29T03:10:23;4.05;;;2.85;;
17340;SDS011;8788;49.930;8.660;2023-04-29T03:12:50;3.40;;;3.10;;
17340;SDS011;8788;49.930;8.660;2023-04-29T03:15:18;3.20;;;2.90;;
17340;SDS011;8788;49.930;8.660;2023-04-29T03:17:46;3.60;;;2.70;;
17340;SDS011;8788;49.930;8.660;2023-04-29T03:20:13;3.45;;;3.00;;
17340;SDS011;8788;49.930;8.660;2023-04-29T03:22:40;6.07;;;3.38;;
17340;SDS011;8788;49.930;8.660;2023-04-29T03:25:08;6.20;;;3.75;;
17340;SDS011;8788;49.930;8.660;2023-04-29T03:27:37;5.13;;;2.90;;
17340;SDS011;8788;49.930;8.660;2023-04-29T03:30:04;3.65;;;2.75;;
17340;SDS011;8788;49.930;8.660;2023-04-29T03:32:34;3.70;;;3.03;;
17340;SDS011;8788;49.930;8.660;2023-04-29T03:35:03;3.13;;;2.88;;
17340;SDS011;8788;49.930;8.660;2023-04-29T03:37:38;3.33;;;3.00;;
17340;SDS011;8788;49.930;8.660;2023-04-29T03:40:21;3.88;;;2.88;;
17340;SDS011;8788;49.930;8.660;2023-04-29T03:42:49;3.40;;;2.80;;
17340;SDS011;8788;49.930;8.660;2023-04-29T03:45:17;4.63;;;3.75;;
17340;SDS011;8788;49.930;8.660;2023-04-29T03:47:44;3.28;;;2.97;;
17340;SDS011;8788;49.930;8.660;2023-04-29T03:50:13;4.47;;;3.25;;
17340;SDS011;8788;49.930;8.660;2023-04-29T03:52:40;3.78;;;3.10;;
17340;SDS011;8788;49.930;8.660;2023-04-29T03:55:10;10.73;;;3.22;;
17340;SDS011;8788;49.930;8.660;2023-04-29T03:57:38;4.00;;;3.30;;
17340;SDS011;8788;49.930;8.660;2023-04-29T04:00:06;5.50;;;3.53;;
17340;SDS011;8788;49.930;8.660;2023-04-29T04:02:45;3.00;;;2.80;;
17340;SDS011;8788;49.930;8.660;2023-04-29T04:05:15;4.50;;;3.85;;
17340;SDS011;8788;49.930;8.660;2023-04-29T04:07:48;4.47;;;3.17;;
17340;SDS011;8788;49.930;8.660;2023-04-29T04:10:27;6.20;;;3.10;;
17340;SDS011;8788;49.930;8.660;2023-04-29T04:12:55;4.25;;;3.85;;
17340;SDS011;8788;49.930;8.660;2023-04-29T04:15:22;4.32;;;3.97;;
17340;SDS011;8788;49.930;8.660;2023-04-29T04:17:51;4.18;;;3.53;;
17340;SDS011;8788;49.930;8.660;2023-04-29T04:20:19;3.95;;;3.55;;
17340;SDS011;8788;49.930;8.660;2023-04-29T04:22:48;3.78;;;3.38;;
17340;SDS011;8788;49.930;8.660;2023-04-29T04:25:20;3.20;;;3.00;;
17340;SDS011;8788;49.930;8.660;2023-04-29T04:27:48;4.55;;;3.10;;
17340;SDS011;8788;49.930;8.660;2023-04-29T04:30:28;3.35;;;3.03;;
17340;SDS011;8788;49.930;8.660;2023-04-29T04:32:55;4.03;;;3.63;;
17340;SDS011;8788;49.930;8.660;2023-04-29T04:35:24;4.15;;;3.85;;
17340;SDS011;8788;49.930;8.660;2023-04-29T04:37:51;3.92;;;3.63;;
17340;SDS011;8788;49.930;8.660;2023-04-29T04:40:18;4.40;;;4.00;;
17340;SDS011;8788;49.930;8.660;2023-04-29T04:43:21;4.38;;;4.07;;
17340;SDS011;8788;49.930;8.660;2023-04-29T04:45:49;4.15;;;3.75;;
17340;SDS011;8788;49.930;8.660;2023-04-29T04:48:16;4.55;;;3.58;;
17340;SDS011;8788;49.930;8.660;2023-04-29T04:50:48;5.97;;;4.50;;
17340;SDS011;8788;49.930;8.660;2023-04-29T04:53:15;4.80;;;3.92;;
17340;SDS011;8788;49.930;8.660;2023-04-29T04:55:49;3.75;;;3.45;;
17340;SDS011;8788;49.930;8.660;2023-04-29T04:58:17;3.72;;;3.45;;
17340;SDS011;8788;49.930;8.660;2023-04-29T05:00:44;5.90;;;3.50;;
17340;SDS011;8788;49.930;8.660;2023-04-29T05:03:11;4.13;;;3.55;;
17340;SDS011;8788;49.930;8.660;2023-04-29T05:05:38;3.63;;;3.33;;
17340;SDS011;8788;49.930;8.660;2023-04-29T05:08:07;4.38;;;3.17;;
17340;SDS011;8788;49.930;8.660;2023-04-29T05:10:39;3.22;;;2.95;;
17340;SDS011;8788;49.930;8.660;2023-04-29T05:13:06;4.60;;;3.00;;
17340;SDS011;8788;49.930;8.660;2023-04-29T05:15:35;3.15;;;2.95;;
17340;SDS011;8788;49.930;8.660;2023-04-29T05:18:03;3.20;;;2.90;;
17340;SDS011;8788;49.930;8.660;2023-04-29T05:20:31;2.90;;;2.70;;
17340;SDS011;8788;49.930;8.660;2023-04-29T05:22:59;3.47;;;3.17;;
17340;SDS011;8788;49.930;8.660;2023-04-29T05:25:30;3.53;;;3.22;;
17340;SDS011;8788;49.930;8.660;2023-04-29T05:27:58;3.33;;;3.03;;
17340;SDS011;8788;49.930;8.660;2023-04-29T05:30:29;4.28;;;3.88;;
17340;SDS011;8788;49.930;8.660;2023-04-29T05:32:56;4.30;;;3.95;;
17340;SDS011;8788;49.930;8.660;2023-04-29T05:35:23;4.20;;;3.58;;
17340;SDS011;8788;49.930;8.660;2023-04-29T05:37:50;4.40;;;3.97;;
17340;SDS011;8788;49.930;8.660;2023-04-29T05:40:48;5.30;;;4.60;;
17340;SDS011;8788;49.930;8.660;2023-04-29T05:43:40;6.45;;;5.80;;
17340;SDS011;8788;49.930;8.660;2023-04-29T05:46:08;7.13;;;5.65;;
17340;SDS011;8788;49.930;8.660;2023-04-29T05:48:35;7.53;;;6.15;;
17340;SDS011;8788;49.930;8.660;2023-04-29T05:51:02;8.90;;;6.22;;
17340;SDS011;8788;49.930;8.660;2023-04-29T05:53:31;9.88;;;5.43;;
17340;SDS011;8788;49.930;8.660;2023-04-29T05:56:01;6.93;;;6.20;;
17340;SDS011;8788;49.930;8.660;2023-04-29T05:58:32;7.43;;;6.65;;
17340;SDS011;8788;49.930;8.660;2023-04-29T06:00:59;6.82;;;6.20;;
17340;SDS011;8788;49.930;8.660;2023-04-29T06:03:27;7.63;;;6.60;;
17340;SDS011;8788;49.930;8.660;2023-04-29T06:06:13;7.45;;;6.72;;
17340;SDS011;8788;49.930;8.660;2023-04-29T06:08:59;9.07;;;6.93;;
17340;SDS011;8788;49.930;8.660;2023-04-29T06:11:30;9.82;;;6.72;;
17340;SDS011;8788;49.930;8.660;2023-04-29T06:13:59;7.95;;;6.47;;
17340;SDS011;8788;49.930;8.660;2023-04-29T06:16:27;6.90;;;6.20;;
17340;SDS011;8788;49.930;8.660;2023-04-29T06:18:55;7.00;;;5.72;;
17340;SDS011;8788;49.930;8.660;2023-04-29T06:21:22;9.95;;;6.38;;
17340;SDS011;8788;49.930;8.660;2023-04-29T06:23:49;8.00;;;5.40;;
17340;SDS011;8788;49.930;8.660;2023-04-29T06:26:17;6.78;;;6.07;;
17340;SDS011;8788;49.930;8.660;2023-04-29T06:28:46;7.13;;;5.40;;
17340;SDS011;8788;49.930;8.660;2023-04-29T06:31:14;8.27;;;5.97;;
17340;SDS011;8788;49.930;8.660;2023-04-29T06:33:41;5.07;;;4.53;;
17340;SDS011;8788;49.930;8.660;2023-04-29T06:36:08;5.30;;;4.43;;
17340;SDS011;8788;49.930;8.660;2023-04-29T06:38:54;7.38;;;4.63;;
17340;SDS011;8788;49.930;8.660;2023-04-29T06:41:24;6.15;;;4.47;;
17340;SDS011;8788;49.930;8.660;2023-04-29T06:43:58;5.28;;;4.07;;
17340;SDS011;8788;49.930;8.660;2023-04-29T06:46:46;6.38;;;4.55;;
17340;SDS011;8788;49.930;8.660;2023-04-29T06:49:24;4.90;;;4.40;;
17340;SDS011;8788;49.930;8.660;2023-04-29T06:51:51;5.75;;;4.43;;
17340;SDS011;8788;49.930;8.660;2023-04-29T06:54:18;4.85;;;3.85;;
17340;SDS011;8788;49.930;8.660;2023-04-29T06:56:48;6.28;;;4.28;;
17340;SDS011;8788;49.930;8.660;2023-04-29T06:59:17;3.97;;;3.45;;
17340;SDS011;8788;49.930;8.660;2023-04-29T07:01:44;5.43;;;4.45;;
17340;SDS011;8788;49.930;8.660;2023-04-29T07:04:12;5.18;;;4.68;;
17340;SDS011;8788;49.930;8.660;2023-04-29T07:06:39;4.68;;;3.97;;
17340;SDS011;8788;49.930;8.660;2023-04-29T07:09:06;4.38;;;3.70;;
17340;SDS011;8788;49.930;8.660;2023-04-29T07:11:35;4.68;;;3.78;;
17340;SDS011;8788;49.930;8.660;2023-04-29T07:14:02;4.20;;;3.70;;
17340;SDS011;8788;49.930;8.660;2023-04-29T07:16:31;3.67;;;3.25;;
17340;SDS011;8788;49.930;8.660;2023-04-29T07:18:58;6.10;;;3.63;;
17340;SDS011;8788;49.930;8.660;2023-04-29T07:21:26;5.03;;;3.10;;
17340;SDS011;8788;49.930;8.660;2023-04-29T07:23:54;4.07;;;3.33;;
17340;SDS011;8788;49.930;8.660;2023-04-29T07:26:24;4.68;;;3.45;;
17340;SDS011;8788;49.930;8.660;2023-04-29T07:28:51;4.00;;;3.60;;
17340;SDS011;8788;49.930;8.660;2023-04-29T07:31:19;4.80;;;3.83;;
17340;SDS011;8788;49.930;8.660;2023-04-29T07:33:48;4.47;;;4.03;;
17340;SDS011;8788;49.930;8.660;2023-04-29T07:36:15;4.68;;;4.15;;
17340;SDS011;8788;49.930;8.660;2023-04-29T07:38:42;4.55;;;3.72;;
17340;SDS011;8788;49.930;8.660;2023-04-29T07:41:09;4.80;;;3.70;;
17340;SDS011;8788;49.930;8.660;2023-04-29T07:43:37;3.70;;;3.40;;
17340;SDS011;8788;49.930;8.660;2023-04-29T07:46:04;3.80;;;3.40;;
17340;SDS011;8788;49.930;8.660;2023-04-29T07:48:35;3.63;;;3.15;;
17340;SDS011;8788;49.930;8.660;2023-04-29T07:51:05;3.47;;;2.80;;
17340;SDS011;8788;49.930;8.660;2023-04-29T07:53:34;3.38;;;2.88;;
17340;SDS011;8788;49.930;8.660;2023-04-29T07:56:03;4.68;;;3.25;;
17340;SDS011;8788;49.930;8.660;2023-04-29T07:58:31;3.97;;;2.92;;
17340;SDS011;8788;49.930;8.660;2023-04-29T08:01:03;3.88;;;2.60;;
17340;SDS011;8788;49.930;8.660;2023-04-29T08:03:31;2.85;;;2.42;;
17340;SDS011;8788;49.930;8.660;2023-04-29T08:05:59;3.60;;;2.75;;
17340;SDS011;8788;49.930;8.660;2023-04-29T08:08:29;2.88;;;2.20;;
17340;SDS011;8788;49.930;8.660;2023-04-29T08:10:56;2.67;;;2.30;;
17340;SDS011;8788;49.930;8.660;2023-04-29T08:13:23;3.30;;;2.72;;
17340;SDS011;8788;49.930;8.660;2023-04-29T08:15:51;2.78;;;2.50;;
17340;SDS011;8788;49.930;8.660;2023-04-29T08:18:18;2.53;;;2.30;;
17340;SDS011;8788;49.930;8.660;2023-04-29T08:20:46;2.60;;;2.35;;
17340;SDS011;8788;49.930;8.660;2023-04-29T08:23:15;5.18;;;3.30;;
17340;SDS011;8788;49.930;8.660;2023-04-29T08:25:44;4.18;;;3.00;;
17340;SDS011;8788;49.930;8.660;2023-04-29T08:28:11;3.92;;;3.15;;
17340;SDS011;8788;49.930;8.660;2023-04-29T08:30:39;3.03;;;2.63;;
17340;SDS011;8788;49.930;8.660;2023-04-29T08:33:06;3.08;;;2.78;;
17340;SDS011;8788;49.930;8.660;2023-04-29T08:35:33;4.80;;;3.40;;
17340;SDS011;8788;49.930;8.660;2023-04-29T08:38:03;2.92;;;2.58;;
17340;SDS011;8788;49.930;8.660;2023-04-29T08:40:32;3.08;;;2.72;;
17340;SDS011;8788;49.930;8.660;2023-04-29T08:43:03;3.30;;;2.67;;
17340;SDS011;8788;49.930;8.660;2023-04-29T08:45:30;4.35;;;3.67;;
17340;SDS011;8788;49.930;8.660;2023-04-29T08:47:59;3.70;;;3.13;;
17340;SDS011;8788;49.930;8.660;2023-04-29T08:50:27;4.22;;;3.15;;
17340;SDS011;8788;49.930;8.660;2023-04-29T08:52:56;4.50;;;3.30;;
17340;SDS011;8788;49.930;8.660;2023-04-29T08:55:23;3.47;;;3.17;;
17340;SDS011;8788;49.930;8.660;2023-04-29T08:57:52;3.55;;;3.05;;
17340;SDS011;8788;49.930;8.660;2023-04-29T09:00:23;5.05;;;3.97;;
17340;SDS011;8788;49.930;8.660;2023-04-29T09:02:51;2.67;;;2.25;;
17340;SDS011;8788;49.930;8.660;2023-04-29T09:05:21;3.55;;;3.00;;
17340;SDS011;8788;49.930;8.660;2023-04-29T09:07:51;4.50;;;3.35;;
17340;SDS011;8788;49.930;8.660;2023-04-29T09:10:18;3.75;;;2.78;;
17340;SDS011;8788;49.930;8.660;2023-04-29T09:12:46;3.60;;;3.13;;
17340;SDS011;8788;49.930;8.660;2023-04-29T09:15:13;2.83;;;2.40;;
17340;SDS011;8788;49.930;8.660;2023-04-29T09:17:42;3.92;;;2.90;;
17340;SDS011;8788;49.930;8.660;2023-04-29T09:20:26;4.13;;;3.00;;
17340;SDS011;8788;49.930;8.660;2023-04-29T09:22:55;3.47;;;3.17;;
17340;SDS011;8788;49.930;8.660;2023-04-29T09:25:26;3.53;;;3.15;;
17340;SDS011;8788;49.930;8.660;2023-04-29T09:27:53;3.90;;;3.50;;
17340;SDS011;8788;49.930;8.660;2023-04-29T09:30:21;3.45;;;3.13;;
17340;SDS011;8788;49.930;8.660;2023-04-29T09:33:05;5.45;;;3.00;;
17340;SDS011;8788;49.930;8.660;2023-04-29T09:35:33;5.15;;;3.90;;
17340;SDS011;8788;49.930;8.660;2023-04-29T09:40:46;6.05;;;3.67;;
17340;SDS011;8788;49.930;8.660;2023-04-29T09:43:14;6.80;;;3.78;;
17340;SDS011;8788;49.930;8.660;2023-04-29T09:45:43;4.25;;;3.15;;
17340;SDS011;8788;49.930;8.660;2023-04-29T09:48:13;3.50;;;3.03;;
17340;SDS011;8788;49.930;8.660;2023-04-29T09:50:42;3.90;;;3.60;;
17340;SDS011;8788;49.930;8.660;2023-04-29T09:53:11;4.32;;;3.50;;
17340;SDS011;8788;49.930;8.660;2023-04-29T09:55:57;3.83;;;3.03;;
17340;SDS011;8788;49.930;8.660;2023-04-29T09:58:28;5.72;;;3.13;;
17340;SDS011;8788;49.930;8.660;2023-04-29T10:01:01;4.30;;;3.65;;
17340;SDS011;8788;49.930;8.660;2023-04-29T10:03:31;4.38;;;3.53;;
17340;SDS011;8788;49.930;8.660;2023-04-29T10:05:59;4.60;;;3.00;;
17340;SDS011;8788;49.930;8.660;2023-04-29T10:08:28;4.25;;;3.58;;
17340;SDS011;8788;49.930;8.660;2023-04-29T10:10:55;4.53;;;3.40;;
17340;SDS011;8788;49.930;8.660;2023-04-29T10:13:25;3.63;;;3.13;;
17340;SDS011;8788;49.930;8.660;2023-04-29T10:15:56;3.78;;;3.22;;
17340;SDS011;8788;49.930;8.660;2023-04-29T10:18:29;3.75;;;3.30;;
17340;SDS011;8788;49.930;8.660;2023-04-29T10:21:02;4.63;;;3.17;;
17340;SDS011;8788;49.930;8.660;2023-04-29T10:23:33;4.70;;;3.00;;
17340;SDS011;8788;49.930;8.660;2023-04-29T10:26:01;3.38;;;3.08;;
17340;SDS011;8788;49.930;8.660;2023-04-29T10:28:29;4.55;;;2.80;;
17340;SDS011;8788;49.930;8.660;2023-04-29T10:30:58;3.50;;;2.90;;
17340;SDS011;8788;49.930;8.660;2023-04-29T10:33:28;2.38;;;2.17;;
17340;SDS011;8788;49.930;8.660;2023-04-29T10:35:59;2.65;;;2.45;;
17340;SDS011;8788;49.930;8.660;2023-04-29T10:38:28;2.25;;;2.03;;
17340;SDS011;8788;49.930;8.660;2023-04-29T10:41:01;2.60;;;2.35;;
17340;SDS011;8788;49.930;8.660;2023-04-29T10:43:33;2.50;;;2.30;;
17340;SDS011;8788;49.930;8.660;2023-04-29T10:46:17;2.38;;;2.17;;
17340;SDS011;8788;49.930;8.660;2023-04-29T10:48:45;3.38;;;2.67;;
17340;SDS011;8788;49.930;8.660;2023-04-29T10:51:16;4.20;;;2.65;;
17340;SDS011;8788;49.930;8.660;2023-04-29T10:54:03;3.95;;;3.20;;
17340;SDS011;8788;49.930;8.660;2023-04-29T10:56:38;2.60;;;2.20;;
17340;SDS011;8788;49.930;8.660;2023-04-29T10:59:13;5.72;;;3.25;;
17340;SDS011;8788;49.930;8.660;2023-04-29T11:01:42;2.65;;;2.45;;
17340;SDS011;8788;49.930;8.660;2023-04-29T11:04:11;2.35;;;2.15;;
17340;SDS011;8788;49.930;8.660;2023-04-29T11:06:44;2.97;;;2.20;;
17340;SDS011;8788;49.930;8.660;2023-04-29T11:09:18;2.72;;;2.53;;
17340;SDS011;8788;49.930;8.660;2023-04-29T11:11:59;3.65;;;2.75;;
17340;SDS011;8788;49.930;8.660;2023-04-29T11:14:29;2.80;;;2.40;;
17340;SDS011;8788;49.930;8.660;2023-04-29T11:16:58;3.33;;;2.20;;
17340;SDS011;8788;49.930;8.660;2023-04-29T11:19:30;2.28;;;2.10;;
17340;SDS011;8788;49.930;8.660;2023-04-29T11:22:10;1.83;;;1.73;;
17340;SDS011;8788;49.930;8.660;2023-04-29T11:24:51;2.30;;;2.10;;
17340;SDS011;8788;49.930;8.660;2023-04-29T11:27:20;3.35;;;2.38;;
17340;SDS011;8788;49.930;8.660;2023-04-29T11:29:50;3.80;;;1.98;;
17340;SDS011;8788;49.930;8.660;2023-04-29T11:32:20;2.40;;;2.20;;
17340;SDS011;8788;49.930;8.660;2023-04-29T11:34:47;2.53;;;2.25;;
17340;SDS011;8788;49.930;8.660;2023-04-29T11:37:21;2.70;;;2.50;;
17340;SDS011;8788;49.930;8.660;2023-04-29T11:39:49;3.17;;;2.28;;
17340;SDS011;8788;49.930;8.660;2023-04-29T11:42:20;2.47;;;2.25;;
17340;SDS011;8788;49.930;8.660;2023-04-29T11:44:50;3.45;;;2.38;;
17340;SDS011;8788;49.930;8.660;2023-04-29T11:47:18;2.78;;;2.17;;
17340;SDS011;8788;49.930;8.660;2023-04-29T11:49:46;1.88;;;1.75;;
17340;SDS011;8788;49.930;8.660;2023-04-29T11:52:13;2.15;;;1.95;;
17340;SDS011;8788;49.930;8.660;2023-04-29T11:54:42;2.22;;;2.03;;
17340;SDS011;8788;49.930;8.660;2023-04-29T11:57:10;2.35;;;2.08;;
17340;SDS011;8788;49.930;8.660;2023-04-29T11:59:37;2.92;;;2.63;;
17340;SDS011;8788;49.930;8.660;2023-04-29T12:02:10;2.85;;;2.47;;
17340;SDS011;8788;49.930;8.660;2023-04-29T12:04:44;3.05;;;2.58;;
17340;SDS011;8788;49.930;8.660;2023-04-29T12:07:13;3.22;;;2.70;;
17340;SDS011;8788;49.930;8.660;2023-04-29T12:09:42;2.95;;;2.72;;
17340;SDS011;8788;49.930;8.660;2023-04-29T12:12:10;4.63;;;2.28;;
17340;SDS011;8788;49.930;8.660;2023-04-29T12:14:39;2.60;;;2.38;;
17340;SDS011;8788;49.930;8.660;2023-04-29T12:17:06;2.60;;;2.40;;
17340;SDS011;8788;49.930;8.660;2023-04-29T12:19:34;2.78;;;2.53;;
17340;SDS011;8788;49.930;8.660;2023-04-29T12:22:03;2.50;;;2.30;;
17340;SDS011;8788;49.930;8.660;2023-04-29T12:24:33;3.63;;;2.72;;
17340;SDS011;8788;49.930;8.660;2023-04-29T12:27:02;2.53;;;2.33;;
17340;SDS011;8788;49.930;8.660;2023-04-29T12:29:30;3.05;;;2.80;;
17340;SDS011;8788;49.930;8.660;2023-04-29T12:31:58;2.95;;;2.60;;
17340;SDS011;8788;49.930;8.660;2023-04-29T12:34:25;2.97;;;2.30;;
17340;SDS011;8788;49.930;8.660;2023-04-29T12:36:54;2.60;;;2.08;;
17340;SDS011;8788;49.930;8.660;2023-04-29T12:39:22;2.40;;;2.20;;
17340;SDS011;8788;49.930;8.660;2023-04-29T12:41:53;2.10;;;1.90;;
17340;SDS011;8788;49.930;8.660;2023-04-29T12:44:23;2.38;;;1.95;;
17340;SDS011;8788;49.930;8.660;2023-04-29T12:46:50;1.75;;;1.65;;
17340;SDS011;8788;49.930;8.660;2023-04-29T12:49:18;2.03;;;1.70;;
17340;SDS011;8788;49.930;8.660;2023-04-29T12:51:45;1.55;;;1.45;;
17340;SDS011;8788;49.930;8.660;2023-04-29T12:54:12;1.52;;;1.40;;
17340;SDS011;8788;49.930;8.660;2023-04-29T12:56:40;2.35;;;1.95;;
17340;SDS011;8788;49.930;8.660;2023-04-29T12:59:07;2.00;;;1.80;;
17340;SDS011;8788;49.930;8.660;2023-04-29T13:01:37;2.03;;;1.83;;
17340;SDS011;8788;49.930;8.660;2023-04-29T13:04:04;1.73;;;1.63;;
17340;SDS011;8788;49.930;8.660;2023-04-29T13:06:33;1.70;;;1.60;;
17340;SDS011;8788;49.930;8.660;2023-04-29T13:09:04;2.20;;;2.00;;
17340;SDS011;8788;49.930;8.660;2023-04-29T13:11:31;2.90;;;1.90;;
17340;SDS011;8788;49.930;8.660;2023-04-29T13:13:58;2.20;;;2.00;;
17340;SDS011;8788;49.930;8.660;2023-04-29T13:16:25;3.75;;;1.98;;
17340;SDS011;8788;49.930;8.660;2023-04-29T13:18:54;2.97;;;1.50;;
17340;SDS011;8788;49.930;8.660;2023-04-29T13:21:21;1.45;;;1.35;;
17340;SDS011;8788;49.930;8.660;2023-04-29T13:23:48;1.58;;;1.48;;
17340;SDS011;8788;49.930;8.660;2023-04-29T13:26:16;1.83;;;1.35;;
17340;SDS011;8788;49.930;8.660;2023-04-29T13:28:43;1.77;;;1.65;;
17340;SDS011;8788;49.930;8.660;2023-04-29T13:31:10;1.40;;;1.30;;
17340;SDS011;8788;49.930;8.660;2023-04-29T13:33:37;1.38;;;1.27;;
17340;SDS011;8788;49.930;8.660;2023-04-29T13:36:06;1.67;;;1.58;;
17340;SDS011;8788;49.930;8.660;2023-04-29T13:38:33;1.60;;;1.50;;
17340;SDS011;8788;49.930;8.660;2023-04-29T13:41:00;2.17;;;1.67;;
17340;SDS011;8788;49.930;8.660;2023-04-29T13:43:27;1.50;;;1.40;;
17340;SDS011;8788;49.930;8.660;2023-04-29T13:45:55;1.70;;;1.45;;
17340;SDS011;8788;49.930;8.660;2023-04-29T13:48:22;1.40;;;1.30;;
17340;SDS011;8788;49.930;8.660;2023-04-29T13:50:50;2.72;;;2.13;;
17340;SDS011;8788;49.930;8.660;2023-04-29T13:53:18;1.23;;;1.13;;
17340;SDS011;8788;49.930;8.660;2023-04-29T13:55:52;1.40;;;1.25;;
17340;SDS011;8788;49.930;8.660;2023-04-29T13:58:21;1.90;;;1.60;;
17340;SDS011;8788;49.930;8.660;2023-04-29T14:00:48;1.63;;;1.52;;
17340;SDS011;8788;49.930;8.660;2023-04-29T14:03:15;1.10;;;1.00;;
17340;SDS011;8788;49.930;8.660;2023-04-29T14:05:43;1.98;;;1.60;;
17340;SDS011;8788;49.930;8.660;2023-04-29T14:08:10;2.20;;;1.38;;
17340;SDS011;8788;49.930;8.660;2023-04-29T14:10:38;1.52;;;1.20;;
17340;SDS011;8788;49.930;8.660;2023-04-29T14:13:05;2.90;;;1.30;;
17340;SDS011;8788;49.930;8.660;2023-04-29T14:15:32;1.30;;;1.20;;
17340;SDS011;8788;49.930;8.660;2023-04-29T14:17:59;2.70;;;1.55;;
17340;SDS011;8788;49.930;8.660;2023-04-29T14:20:27;1.67;;;1.50;;
17340;SDS011;8788;49.930;8.660;2023-04-29T14:22:54;1.88;;;1.58;;
17340;SDS011;8788;49.930;8.660;2023-04-29T14:25:21;2.67;;;1.27;;
17340;SDS011;8788;49.930;8.660;2023-04-29T14:27:49;2.15;;;1.95;;
17340;SDS011;8788;49.930;8.660;2023-04-29T14:30:16;1.85;;;1.60;;
17340;SDS011;8788;49.930;8.660;2023-04-29T14:32:43;2.25;;;1.88;;
17340;SDS011;8788;49.930;8.660;2023-04-29T14:35:11;1.70;;;1.60;;
17340;SDS011;8788;49.930;8.660;2023-04-29T14:37:39;1.55;;;1.45;;
17340;SDS011;8788;49.930;8.660;2023-04-29T14:40:06;2.00;;;1.67;;
17340;SDS011;8788;49.930;8.660;2023-04-29T14:42:35;1.67;;;1.42;;
17340;SDS011;8788;49.930;8.660;2023-04-29T14:45:04;1.30;;;1.20;;
17340;SDS011;8788;49.930;8.660;2023-04-29T14:47:32;1.02;;;1.00;;
17340;SDS011;8788;49.930;8.660;2023-04-29T14:49:59;1.30;;;1.20;;
17340;SDS011;8788;49.930;8.660;2023-04-29T14:52:26;1.45;;;1.35;;
17340;SDS011;8788;49.930;8.660;2023-04-29T14:54:53;1.40;;;1.30;;
17340;SDS011;8788;49.930;8.660;2023-04-29T14:57:20;5.25;;;2.20;;
17340;SDS011;8788;49.930;8.660;2023-04-29T14:59:47;2.75;;;2.03;;
17340;SDS011;8788;49.930;8.660;2023-04-29T15:02:16;5.10;;;3.60;;
17340;SDS011;8788;49.930;8.660;2023-04-29T15:04:43;3.35;;;3.05;;
17340;SDS011;8788;49.930;8.660;2023-04-29T15:07:10;4.50;;;1.80;;
17340;SDS011;8788;49.930;8.660;2023-04-29T15:09:38;1.83;;;1.73;;
17340;SDS011;8788;49.930;8.660;2023-04-29T15:12:05;2.22;;;2.03;;
17340;SDS011;8788;49.930;8.660;2023-04-29T15:14:32;2.33;;;2.08;;
17340;SDS011;8788;49.930;8.660;2023-04-29T15:16:59;1.67;;;1.58;;
17340;SDS011;8788;49.930;8.660;2023-04-29T15:19:28;1.35;;;1.25;;
17340;SDS011;8788;49.930;8.660;2023-04-29T15:21:55;2.25;;;1.20;;